Time;durP1;ratioP1;P1;durP2;ratioP2;P2;SDS_P1;SDS_P2;PMS_P1;PMS_P2;Temp;Humidity;BMP_temperature;BMP_pressure;BME280_temperature;BME280_humidity;BME280_pressure;Samples;Min_cycle;Max_cycle;Signal;HPM_P1;HPM_P2
2022/06/01 00:00:14;;;;;;;3.35;2.67;;;22.60;62.20;;;;;;6159532;28;80347;-66
2022/06/01 00:03:16;;;;;;;3.50;2.63;;;22.50;62.50;;;;;;6155853;28;81912;-66
2022/06/01 00:06:17;;;;;;;4.13;2.63;;;22.50;61.40;;;;;;6150708;28;83580;-66
2022/06/01 00:09:17;;;;;;;3.10;2.45;;;22.50;61.90;;;;;;6151516;28;81794;-66
2022/06/01 00:12:18;;;;;;;4.90;2.47;;;22.50;61.30;;;;;;6155956;28;80282;-66
2022/06/01 00:15:18;;;;;;;3.42;2.63;;;22.60;62.20;;;;;;6143650;28;81272;-66
2022/06/01 00:18:19;;;;;;;3.85;2.45;;;22.50;62.10;;;;;;6156469;28;80264;-66
2022/06/01 00:21:19;;;;;;;3.45;2.58;;;22.50;62.30;;;;;;6165995;28;81148;-66
2022/06/01 00:24:20;;;;;;;4.30;3.08;;;22.60;62.10;;;;;;6144457;28;80754;-66
2022/06/01 00:27:20;;;;;;;2.40;1.92;;;22.50;62.00;;;;;;6163818;28;80567;-66
2022/06/01 00:30:21;;;;;;;3.25;2.70;;;22.50;62.10;;;;;;6164852;28;80768;-66
2022/06/01 00:33:21;;;;;;;3.15;2.30;;;22.50;62.30;;;;;;6145636;28;81651;-66
2022/06/01 00:36:22;;;;;;;3.35;2.63;;;22.50;62.10;;;;;;6158443;28;80583;-66
2022/06/01 00:39:22;;;;;;;2.45;2.15;;;22.50;62.10;;;;;;6161122;28;80351;-66
2022/06/01 00:42:23;;;;;;;3.20;2.22;;;22.50;61.90;;;;;;6146086;28;80360;-66
2022/06/01 00:45:23;;;;;;;4.05;2.50;;;22.50;61.80;;;;;;6161638;28;81182;-65
2022/06/01 00:48:24;;;;;;;4.50;2.50;;;22.50;61.80;;;;;;6153361;28;80348;-66
2022/06/01 00:51:24;;;;;;;3.65;2.55;;;22.50;62.50;;;;;;6155752;28;80634;-66
2022/06/01 00:54:26;;;;;;;3.33;2.50;;;22.50;62.30;;;;;;6150817;28;80573;-66
2022/06/01 00:57:26;;;;;;;2.75;2.30;;;22.50;62.10;;;;;;6145652;28;82153;-67
2022/06/01 01:00:27;;;;;;;3.25;2.05;;;22.50;62.00;;;;;;6160855;28;80366;-67
2022/06/01 01:03:28;;;;;;;4.65;2.50;;;22.50;61.90;;;;;;6158982;28;80179;-67
2022/06/01 01:06:29;;;;;;;4.70;2.63;;;22.50;62.00;;;;;;6140187;28;81320;-67
2022/06/01 01:09:29;;;;;;;2.50;2.17;;;22.50;61.70;;;;;;6145707;28;80832;-66
2022/06/01 01:12:56;;;;;;;8.10;2.63;;;22.50;61.50;;;;;;6137804;28;80287;-66
2022/06/01 01:15:55;;;;;;;2.53;2.13;;;22.50;61.70;;;;;;6150207;28;80912;-66
2022/06/01 01:18:55;;;;;;;2.37;2.07;;;22.50;62.20;;;;;;6153195;28;80497;-66
2022/06/01 01:21:56;;;;;;;3.55;2.15;;;22.50;61.90;;;;;;6142397;28;80510;-66
2022/06/01 01:24:57;;;;;;;3.63;2.22;;;22.50;62.10;;;;;;6142413;28;81332;-66
2022/06/01 01:27:57;;;;;;;3.33;2.33;;;22.50;61.50;;;;;;6142545;28;80600;-66
2022/06/01 01:30:58;;;;;;;2.67;2.47;;;22.50;61.60;;;;;;6160506;28;80791;-66
2022/06/01 01:33:58;;;;;;;3.97;2.55;;;22.50;61.80;;;;;;6150483;28;80908;-66
2022/06/01 01:36:59;;;;;;;3.22;2.33;;;22.50;61.60;;;;;;6150703;28;80324;-66
2022/06/01 01:39:59;;;;;;;3.72;2.55;;;22.50;61.60;;;;;;6160396;28;80310;-66
2022/06/01 01:43:00;;;;;;;3.33;2.60;;;22.50;62.50;;;;;;6157000;28;80300;-66
2022/06/01 01:46:01;;;;;;;4.47;2.85;;;22.50;61.80;;;;;;6150387;28;80734;-66
2022/06/01 01:49:02;;;;;;;3.53;2.35;;;22.50;61.30;;;;;;6154226;28;83156;-66
2022/06/01 01:52:02;;;;;;;2.00;1.80;;;22.50;61.70;;;;;;6148217;28;80414;-65
2022/06/01 01:55:03;;;;;;;5.50;2.88;;;22.50;61.50;;;;;;6150759;28;80360;-66
2022/06/01 01:58:03;;;;;;;3.85;2.60;;;22.50;61.60;;;;;;6146081;28;81705;-66
2022/06/01 02:01:04;;;;;;;3.22;2.38;;;22.50;61.40;;;;;;6147481;28;80859;-66
2022/06/01 02:04:04;;;;;;;2.92;2.10;;;22.50;61.70;;;;;;6152728;28;80503;-66
2022/06/01 02:07:17;;;;;;;3.22;2.55;;;22.50;61.30;;;;;;6151080;28;80554;-66
2022/06/01 02:13:37;;;;;;;4.40;2.30;;;22.50;61.50;;;;;;6157103;28;80361;-66
2022/06/01 02:16:41;;;;;;;3.55;2.67;;;22.50;61.60;;;;;;6155881;28;80483;-66
2022/06/01 02:31:02;;;;;;;2.97;2.10;;;22.50;61.60;;;;;;6104787;28;80422;-68
2022/06/01 02:34:03;;;;;;;4.68;2.25;;;22.50;61.00;;;;;;6144134;28;80936;-67
2022/06/01 02:37:04;;;;;;;4.00;2.20;;;22.50;61.20;;;;;;6169481;28;81637;-67
2022/06/01 02:40:05;;;;;;;4.28;2.60;;;22.50;61.30;;;;;;6230732;28;81533;-67
2022/06/01 02:43:05;;;;;;;3.50;2.70;;;22.50;61.90;;;;;;6218697;28;82755;-67
2022/06/01 02:46:06;;;;;;;3.58;2.58;;;22.50;61.60;;;;;;6227531;28;80556;-67
2022/06/01 02:49:06;;;;;;;4.90;2.40;;;22.50;61.50;;;;;;6232957;28;80217;-66
2022/06/01 02:52:07;;;;;;;5.43;2.70;;;22.50;61.70;;;;;;6217936;28;80215;-65
2022/06/01 02:55:08;;;;;;;2.97;2.53;;;22.50;60.60;;;;;;6208998;28;82951;-66
2022/06/01 02:58:09;;;;;;;3.85;2.65;;;22.40;61.30;;;;;;6225341;28;80373;-65
2022/06/01 03:01:11;;;;;;;2.80;2.45;;;22.50;61.60;;;;;;6215169;28;81709;-65
2022/06/01 03:04:12;;;;;;;2.90;2.42;;;22.50;61.50;;;;;;6226409;28;80198;-66
2022/06/01 03:07:12;;;;;;;3.78;2.10;;;22.50;61.50;;;;;;6208173;28;80939;-65
2022/06/01 03:10:13;;;;;;;2.80;2.50;;;22.50;61.60;;;;;;6218629;28;80207;-65
2022/06/01 03:13:14;;;;;;;2.30;2.10;;;22.40;61.40;;;;;;6227679;28;81642;-65
2022/06/01 03:16:14;;;;;;;5.95;2.50;;;22.50;61.70;;;;;;6219749;28;80579;-65
2022/06/01 03:19:15;;;;;;;4.95;2.40;;;22.50;61.50;;;;;;6219738;28;80695;-65
2022/06/01 03:22:15;;;;;;;2.47;2.20;;;22.50;61.70;;;;;;6230467;28;80366;-65
2022/06/01 03:25:16;;;;;;;2.60;2.10;;;22.50;61.20;;;;;;6215792;28;80991;-65
2022/06/01 03:28:16;;;;;;;5.72;2.78;;;22.50;61.40;;;;;;6218876;28;81609;-64
2022/06/01 03:31:17;;;;;;;2.58;2.20;;;22.50;61.20;;;;;;6209840;28;80186;-65
2022/06/01 03:34:17;;;;;;;3.97;2.10;;;22.50;61.20;;;;;;6207955;28;86810;-65
2022/06/01 03:37:18;;;;;;;2.85;2.30;;;22.50;61.30;;;;;;6214587;28;80430;-64
2022/06/01 03:40:18;;;;;;;3.10;2.10;;;22.50;61.30;;;;;;6218444;28;80856;-65
2022/06/01 03:43:19;;;;;;;8.25;2.35;;;22.50;61.30;;;;;;6219771;28;80810;-65
2022/06/01 03:46:20;;;;;;;4.45;2.83;;;22.40;61.10;;;;;;6227158;28;80534;-65
2022/06/01 03:49:20;;;;;;;4.53;2.72;;;22.50;60.80;;;;;;6211657;28;80544;-66
2022/06/01 03:52:21;;;;;;;2.72;2.45;;;22.50;61.50;;;;;;6206947;28;80685;-65
2022/06/01 03:55:21;;;;;;;4.13;2.67;;;22.40;61.00;;;;;;6222699;28;80899;-66
2022/06/01 03:58:22;;;;;;;3.58;2.53;;;22.50;61.00;;;;;;6221672;28;80257;-66
2022/06/01 04:01:22;;;;;;;7.15;3.28;;;22.50;60.90;;;;;;6203478;28;80499;-66
2022/06/01 04:04:23;;;;;;;4.38;2.75;;;22.40;60.50;;;;;;6230774;28;84122;-66
2022/06/01 04:07:23;;;;;;;4.30;2.75;;;22.40;61.10;;;;;;6225817;28;80158;-66
2022/06/01 04:10:24;;;;;;;4.45;2.95;;;22.50;60.70;;;;;;6227078;28;80206;-66
2022/06/01 04:13:24;;;;;;;4.90;2.63;;;22.50;60.50;;;;;;6225432;28;81795;-66
2022/06/01 04:16:25;;;;;;;4.45;2.80;;;22.50;60.80;;;;;;6220139;28;80722;-66
2022/06/01 04:19:26;;;;;;;5.88;3.15;;;22.50;60.50;;;;;;6211356;28;80546;-66
2022/06/01 04:22:26;;;;;;;4.47;3.28;;;22.50;60.50;;;;;;6224684;28;80363;-65
2022/06/01 04:25:27;;;;;;;5.15;3.30;;;22.50;60.40;;;;;;6220532;28;81555;-68
2022/06/01 04:28:27;;;;;;;4.20;2.95;;;22.50;60.50;;;;;;6209680;28;81030;-68
2022/06/01 04:31:28;;;;;;;4.10;3.05;;;22.50;60.70;;;;;;6231834;28;82343;-71
2022/06/01 04:34:28;;;;;;;4.18;2.75;;;22.50;60.70;;;;;;6229832;28;80639;-68
2022/06/01 04:37:29;;;;;;;5.43;3.40;;;22.50;60.60;;;;;;6197734;28;80446;-67
2022/06/01 04:40:29;;;;;;;7.70;3.38;;;22.50;60.60;;;;;;6202070;28;81736;-70
2022/06/01 04:43:30;;;;;;;4.15;3.15;;;22.50;60.50;;;;;;6203081;28;80622;-72
2022/06/01 04:46:30;;;;;;;6.18;3.25;;;22.50;60.50;;;;;;6191864;28;80771;-67
2022/06/01 04:49:31;;;;;;;7.22;3.60;;;22.50;60.70;;;;;;6201263;28;81839;-69
2022/06/01 04:52:31;;;;;;;10.10;3.72;;;22.50;61.30;;;;;;6198308;28;81333;-69
2022/06/01 04:55:32;;;;;;;6.65;3.65;;;22.50;61.00;;;;;;6181329;28;80226;-69
2022/06/01 04:58:32;;;;;;;6.53;3.78;;;22.50;61.40;;;;;;6208560;28;80890;-69
2022/06/01 05:01:33;;;;;;;6.80;3.13;;;22.50;61.50;;;;;;6226377;28;87407;-70
2022/06/01 05:04:34;;;;;;;10.48;3.75;;;22.50;61.50;;;;;;6217857;28;81026;-68
2022/06/01 05:07:34;;;;;;;4.82;3.42;;;22.50;61.20;;;;;;6220189;28;80398;-68
2022/06/01 05:10:35;;;;;;;6.47;4.03;;;22.60;61.70;;;;;;6225512;28;80418;-69
2022/06/01 05:13:36;;;;;;;6.65;3.13;;;22.60;61.70;;;;;;6234605;28;81147;-67
2022/06/01 05:16:36;;;;;;;8.30;3.38;;;22.60;61.70;;;;;;6231489;28;80546;-71
2022/06/01 05:19:37;;;;;;;14.27;3.50;;;22.60;61.10;;;;;;6225763;28;80801;-69
2022/06/01 05:22:37;;;;;;;8.43;3.65;;;22.60;61.90;;;;;;6220526;28;80374;-71
2022/06/01 05:25:38;;;;;;;11.38;4.43;;;22.70;62.50;;;;;;6224545;28;80865;-72
2022/06/01 05:28:38;;;;;;;10.93;4.03;;;22.70;61.80;;;;;;6220805;28;80580;-69
2022/06/01 05:31:39;;;;;;;9.30;3.78;;;22.70;62.00;;;;;;6223993;28;81860;-71
2022/06/01 05:34:40;;;;;;;7.22;2.95;;;22.70;61.40;;;;;;6233092;28;82092;-71
2022/06/01 05:37:40;;;;;;;6.90;3.60;;;22.70;62.40;;;;;;6229737;28;80164;-71
2022/06/01 05:40:41;;;;;;;4.65;3.58;;;22.70;61.80;;;;;;6220217;28;80335;-71
2022/06/01 05:43:41;;;;;;;7.40;3.85;;;22.70;61.20;;;;;;6223210;28;80236;-74
2022/06/01 05:46:42;;;;;;;7.43;3.17;;;22.70;61.10;;;;;;6228086;28;80363;-68
2022/06/01 05:49:42;;;;;;;5.55;3.33;;;22.70;60.90;;;;;;6230847;28;87179;-67
2022/06/01 05:52:43;;;;;;;5.85;3.53;;;22.70;61.00;;;;;;6234528;28;80325;-75
2022/06/01 05:55:43;;;;;;;9.18;3.35;;;22.70;60.90;;;;;;6222569;28;80754;-77
2022/06/01 05:58:44;;;;;;;10.02;4.53;;;22.80;60.60;;;;;;6230580;28;80271;-72
2022/06/01 06:01:45;;;;;;;14.52;5.30;;;22.50;60.10;;;;;;6217923;28;81452;-74
2022/06/01 06:04:45;;;;;;;8.82;4.55;;;22.30;59.20;;;;;;6200661;28;81283;-74
2022/06/01 06:07:46;;;;;;;10.98;5.18;;;21.60;59.40;;;;;;6215317;28;80910;-71
2022/06/01 06:10:46;;;;;;;10.07;4.60;;;21.20;60.60;;;;;;6210466;28;80301;-72
2022/06/01 06:13:47;;;;;;;9.52;4.70;;;20.80;61.10;;;;;;6211754;28;80768;-72
2022/06/01 06:16:47;;;;;;;8.85;4.60;;;20.40;62.50;;;;;;6222987;28;81158;-71
2022/06/01 06:19:48;;;;;;;12.05;4.28;;;20.40;63.10;;;;;;6232842;28;80403;-68
2022/06/01 06:22:48;;;;;;;14.68;4.90;;;20.40;63.40;;;;;;6230627;28;80731;-69
2022/06/01 06:25:49;;;;;;;7.70;3.63;;;20.50;63.40;;;;;;6222012;28;80817;-71
2022/06/01 06:28:49;;;;;;;10.48;5.13;;;20.70;63.10;;;;;;6209553;28;82254;-69
2022/06/01 06:31:50;;;;;;;9.40;4.50;;;20.70;62.60;;;;;;6217800;28;80575;-72
2022/06/01 06:34:50;;;;;;;8.73;4.20;;;20.90;62.70;;;;;;6226882;28;80703;-71
2022/06/01 06:37:51;;;;;;;11.60;4.03;;;20.90;61.90;;;;;;6232101;28;80370;-72
2022/06/01 06:40:51;;;;;;;11.63;4.07;;;21.00;62.10;;;;;;6211951;28;80202;-71
2022/06/01 06:43:52;;;;;;;6.47;3.72;;;21.10;61.90;;;;;;6222471;28;81258;-71
2022/06/01 06:46:53;;;;;;;17.02;4.43;;;21.20;61.40;;;;;;6222274;28;80241;-71
2022/06/01 06:49:53;;;;;;;9.75;3.95;;;20.90;62.30;;;;;;6221725;28;80275;-71
2022/06/01 06:52:54;;;;;;;8.60;4.00;;;21.20;62.00;;;;;;6233520;28;81062;-72
2022/06/01 06:55:54;;;;;;;8.30;3.83;;;21.30;61.50;;;;;;6227781;28;80345;-71
2022/06/01 06:58:55;;;;;;;6.78;3.58;;;21.50;61.20;;;;;;6225643;28;80588;-70
2022/06/01 07:01:55;;;;;;;6.15;3.58;;;21.70;61.00;;;;;;6228593;28;80590;-71
2022/06/01 07:04:56;;;;;;;4.53;3.13;;;21.60;60.80;;;;;;6212152;28;80456;-72
2022/06/01 07:07:56;;;;;;;7.90;3.58;;;21.50;60.20;;;;;;6225267;28;80482;-71
2022/06/01 07:10:57;;;;;;;4.70;3.25;;;21.50;60.50;;;;;;6220007;28;82116;-69
2022/06/01 07:13:58;;;;;;;4.55;3.08;;;21.50;60.50;;;;;;6202072;28;80746;-71
2022/06/01 07:16:58;;;;;;;7.05;2.83;;;21.30;60.70;;;;;;6225161;28;81826;-71
2022/06/01 07:19:59;;;;;;;8.75;3.03;;;21.30;60.90;;;;;;6218498;28;81318;-71
2022/06/01 07:23:00;;;;;;;5.63;2.90;;;21.40;60.90;;;;;;6227840;28;81557;-72
2022/06/01 07:26:01;;;;;;;4.00;2.65;;;21.30;61.40;;;;;;6202792;28;80729;-72
2022/06/01 07:29:01;;;;;;;4.00;2.40;;;21.50;61.40;;;;;;6222034;28;80416;-69
2022/06/01 07:32:02;;;;;;;5.75;3.08;;;21.50;60.40;;;;;;6218813;28;82040;-69
2022/06/01 07:35:04;;;;;;;4.15;2.65;;;21.50;60.80;;;;;;6204345;28;81314;-69
2022/06/01 07:44:43;;;;;;;6.93;3.53;;;21.60;60.50;;;;;;6219399;28;81429;-70
2022/06/01 07:47:43;;;;;;;4.38;2.45;;;21.50;60.20;;;;;;6220999;28;81574;-71
2022/06/01 07:50:45;;;;;;;4.85;2.70;;;21.60;60.40;;;;;;6216985;28;81228;-70
2022/06/01 07:53:45;;;;;;;8.18;3.35;;;21.70;60.50;;;;;;6234390;28;80948;-70
2022/06/01 07:56:46;;;;;;;5.97;3.38;;;21.60;60.20;;;;;;6222719;28;81331;-70
2022/06/01 07:59:46;;;;;;;7.93;3.30;;;21.50;60.80;;;;;;6230210;28;80197;-70
2022/06/01 08:02:47;;;;;;;6.18;2.47;;;21.40;60.90;;;;;;6215658;28;80830;-71
2022/06/01 08:05:47;;;;;;;4.50;2.50;;;21.60;60.90;;;;;;6221092;28;80566;-69
2022/06/01 08:08:48;;;;;;;4.68;2.67;;;21.70;60.60;;;;;;6222114;28;82026;-70
2022/06/01 08:15:08;;;;;;;5.45;3.60;;;21.60;61.00;;;;;;6223387;28;81210;-70
2022/06/01 08:18:08;;;;;;;5.38;2.70;;;21.70;60.70;;;;;;6216392;28;80628;-71
2022/06/01 08:21:09;;;;;;;11.98;2.70;;;21.70;60.60;;;;;;6213018;28;80917;-71
2022/06/01 08:24:09;;;;;;;5.78;2.58;;;21.60;60.60;;;;;;6220273;28;82154;-70
2022/06/01 08:27:10;;;;;;;4.53;2.53;;;21.50;60.90;;;;;;6220747;28;81773;-70
2022/06/01 08:30:11;;;;;;;3.70;2.58;;;21.50;61.40;;;;;;6225503;28;80479;-71
2022/06/01 08:33:12;;;;;;;3.45;2.10;;;21.40;61.60;;;;;;6226503;28;80526;-64
2022/06/01 08:36:13;;;;;;;5.72;2.30;;;21.50;61.80;;;;;;6221343;28;80225;-65
2022/06/01 08:39:13;;;;;;;6.78;2.85;;;21.70;61.40;;;;;;6235306;28;80716;-64
2022/06/01 08:42:14;;;;;;;3.47;2.47;;;21.80;61.20;;;;;;6235269;28;81589;-67
2022/06/01 08:45:14;;;;;;;7.85;2.75;;;21.90;60.90;;;;;;6216564;28;80401;-70
2022/06/01 08:48:15;;;;;;;3.20;1.98;;;22.00;60.80;;;;;;6231701;28;81148;-67
2022/06/01 08:51:16;;;;;;;3.70;2.25;;;22.00;60.90;;;;;;6224950;28;81170;-67
2022/06/01 08:54:16;;;;;;;4.20;2.90;;;22.00;61.00;;;;;;6203942;28;82698;-68
2022/06/01 08:57:19;;;;;;;4.65;2.47;;;22.10;61.30;;;;;;6197612;28;81559;-69
2022/06/01 09:00:20;;;;;;;5.15;2.63;;;22.10;61.20;;;;;;6231868;28;82850;-69
2022/06/01 09:03:20;;;;;;;4.38;2.45;;;22.20;61.10;;;;;;6226784;28;80527;-69
2022/06/01 09:06:21;;;;;;;4.40;2.60;;;22.20;60.80;;;;;;6229625;28;80735;-69
2022/06/01 09:09:22;;;;;;;6.57;2.67;;;22.30;61.10;;;;;;6236933;28;81747;-68
2022/06/01 09:12:23;;;;;;;4.00;2.70;;;22.30;61.20;;;;;;6222558;28;80206;-70
2022/06/01 09:15:23;;;;;;;6.68;2.97;;;22.00;61.70;;;;;;6220641;28;80883;-70
2022/06/01 09:18:24;;;;;;;6.10;2.55;;;21.70;62.30;;;;;;6212475;28;82924;-70
2022/06/01 09:24:44;;;;;;;10.57;2.92;;;21.70;62.30;;;;;;6227134;28;80950;-72
2022/06/01 09:27:45;;;;;;;5.88;2.70;;;21.60;62.90;;;;;;6233829;28;80532;-71
2022/06/01 09:30:45;;;;;;;5.32;2.78;;;21.60;62.90;;;;;;6217321;28;81832;-70
2022/06/01 09:33:46;;;;;;;5.63;2.50;;;21.70;62.30;;;;;;6223738;28;81846;-69
2022/06/01 09:36:46;;;;;;;5.68;2.90;;;21.70;62.10;;;;;;6230913;28;81709;-70
2022/06/01 09:39:47;;;;;;;5.18;2.45;;;21.60;62.20;;;;;;6229130;28;81230;-69
2022/06/01 09:42:47;;;;;;;3.25;2.45;;;21.80;62.30;;;;;;6210564;28;81785;-70
2022/06/01 09:45:48;;;;;;;8.25;1.88;;;21.90;60.90;;;;;;6202764;28;83210;-70
2022/06/01 09:48:48;;;;;;;4.00;2.50;;;22.00;60.90;;;;;;6195692;28;80597;-70
2022/06/01 09:51:49;;;;;;;3.15;2.28;;;22.10;60.10;;;;;;6205601;28;80329;-71
2022/06/01 09:54:49;;;;;;;3.58;2.17;;;22.00;60.50;;;;;;6201288;28;81338;-68
2022/06/01 09:57:50;;;;;;;3.30;2.17;;;22.20;61.10;;;;;;6195337;28;80475;-68
2022/06/01 10:07:29;;;;;;;2.95;1.75;;;22.30;58.00;;;;;;6203581;28;80333;-68
2022/06/01 10:10:29;;;;;;;3.30;2.25;;;22.30;57.80;;;;;;6232683;28;80822;-68
2022/06/01 10:13:31;;;;;;;4.45;1.63;;;22.30;57.60;;;;;;6223331;28;81974;-68
2022/06/01 10:16:35;;;;;;;7.88;2.40;;;22.40;57.90;;;;;;6227281;28;80227;-68
2022/06/01 10:19:35;;;;;;;2.75;1.83;;;22.50;58.30;;;;;;6232853;28;84751;-67
2022/06/01 10:22:36;;;;;;;2.47;1.50;;;22.60;57.90;;;;;;6220266;28;80453;-68
2022/06/01 10:25:37;;;;;;;3.53;1.95;;;22.60;57.50;;;;;;6230349;28;80487;-68
2022/06/01 10:28:40;;;;;;;2.38;2.03;;;22.60;58.00;;;;;;6227644;28;80545;-68
2022/06/01 10:31:42;;;;;;;3.22;2.25;;;22.70;58.10;;;;;;6218924;28;80612;-68
2022/06/01 10:34:42;;;;;;;2.92;2.17;;;22.70;57.00;;;;;;6230630;28;80901;-69
2022/06/01 10:37:43;;;;;;;2.33;1.80;;;22.60;57.10;;;;;;6216669;28;80315;-69
2022/06/01 10:40:43;;;;;;;2.50;1.80;;;22.70;57.10;;;;;;6223938;28;80568;-68
2022/06/01 10:43:44;;;;;;;3.33;2.28;;;22.60;56.20;;;;;;6200279;28;84268;-68
2022/06/01 10:46:47;;;;;;;2.97;1.85;;;22.80;57.20;;;;;;6218788;28;80570;-68
2022/06/01 10:49:48;;;;;;;3.55;2.20;;;22.80;57.10;;;;;;6221960;28;80781;-68
2022/06/01 10:52:49;;;;;;;2.45;1.73;;;22.90;57.00;;;;;;6222421;28;80147;-68
2022/06/01 10:55:49;;;;;;;2.80;1.90;;;22.90;57.00;;;;;;6222921;28;80917;-67
2022/06/01 10:58:50;;;;;;;2.75;1.92;;;22.90;56.10;;;;;;6218747;28;80644;-68
2022/06/01 11:01:51;;;;;;;2.45;1.67;;;23.00;55.20;;;;;;6212216;28;81270;-68
2022/06/01 11:04:51;;;;;;;2.05;1.80;;;23.00;54.60;;;;;;6224918;28;80314;-68
2022/06/01 11:07:52;;;;;;;2.58;1.90;;;23.00;54.70;;;;;;6212175;28;81696;-68
2022/06/01 11:10:53;;;;;;;2.13;1.90;;;23.10;56.50;;;;;;6224822;28;80157;-68
2022/06/01 11:13:53;;;;;;;2.20;1.95;;;23.10;55.80;;;;;;6229271;28;80498;-67
2022/06/01 11:16:54;;;;;;;2.42;1.80;;;23.10;55.40;;;;;;6228399;28;80689;-67
2022/06/01 11:19:54;;;;;;;4.65;1.77;;;23.10;55.50;;;;;;6221165;28;80995;-68
2022/06/01 11:22:55;;;;;;;4.97;2.38;;;23.10;55.40;;;;;;6220553;28;80605;-71
2022/06/01 11:25:55;;;;;;;4.85;1.90;;;23.10;55.30;;;;;;6226360;28;80486;-69
2022/06/01 11:28:56;;;;;;;5.68;2.33;;;23.10;55.30;;;;;;6222606;28;80797;-69
2022/06/01 11:31:56;;;;;;;2.75;2.33;;;23.10;53.60;;;;;;6226112;28;80368;-69
2022/06/01 11:34:57;;;;;;;5.78;2.42;;;23.10;54.50;;;;;;6212388;28;80523;-69
2022/06/01 11:37:57;;;;;;;2.13;1.63;;;23.10;54.10;;;;;;6213949;28;80556;-70
2022/06/01 11:40:58;;;;;;;5.90;2.25;;;23.10;53.90;;;;;;6228446;28;80723;-66
2022/06/01 11:43:58;;;;;;;6.55;2.33;;;23.10;52.60;;;;;;6225520;28;80404;-70
2022/06/01 11:46:59;;;;;;;5.50;2.45;;;23.10;52.90;;;;;;6219678;28;80484;-69
2022/06/01 11:49:59;;;;;;;12.15;2.50;;;23.10;53.10;;;;;;6225084;28;80519;-69
2022/06/01 11:53:00;;;;;;;6.93;2.67;;;23.10;53.30;;;;;;6225633;28;80711;-72
2022/06/01 11:56:00;;;;;;;7.28;2.95;;;23.10;53.30;;;;;;6194525;28;80271;-70
2022/06/01 11:59:01;;;;;;;6.55;2.63;;;23.20;52.10;;;;;;6211656;28;81567;-69
2022/06/01 12:02:01;;;;;;;14.65;2.58;;;23.20;52.90;;;;;;6217624;28;80501;-68
2022/06/01 12:05:02;;;;;;;3.50;2.40;;;23.30;50.10;;;;;;6215752;28;80406;-67
2022/06/01 12:08:02;;;;;;;2.72;1.67;;;23.40;51.20;;;;;;6211936;28;81231;-67
2022/06/01 12:11:06;;;;;;;8.98;1.98;;;23.30;51.30;;;;;;6212792;28;80449;-68
2022/06/01 12:14:06;;;;;;;6.07;1.98;;;23.30;50.80;;;;;;6214558;28;81562;-68
2022/06/01 12:17:07;;;;;;;2.88;1.50;;;23.30;50.10;;;;;;6212037;28;82323;-69
2022/06/01 12:20:07;;;;;;;3.67;1.80;;;23.40;46.70;;;;;;6221872;28;80342;-68
2022/06/01 12:29:48;;;;;;;2.58;1.80;;;23.70;47.40;;;;;;6210040;28;80876;-69
2022/06/01 12:32:48;;;;;;;5.22;1.77;;;23.60;48.70;;;;;;6201708;28;83587;-71
2022/06/01 12:35:49;;;;;;;2.67;1.50;;;23.70;43.00;;;;;;6228754;28;80678;-68
2022/06/01 12:38:49;;;;;;;5.18;1.60;;;23.80;41.30;;;;;;6223751;28;80369;-71
2022/06/01 12:41:50;;;;;;;3.08;1.20;;;23.80;41.50;;;;;;6230446;28;80408;-72
2022/06/01 12:44:50;;;;;;;3.67;1.50;;;23.90;40.30;;;;;;6230529;28;81587;-71
2022/06/01 12:47:51;;;;;;;2.55;1.30;;;23.90;40.50;;;;;;6216401;28;86146;-71
2022/06/01 12:50:51;;;;;;;3.53;1.15;;;23.90;42.60;;;;;;6215706;28;80510;-71
2022/06/01 12:53:53;;;;;;;1.55;1.30;;;23.80;42.00;;;;;;6231293;28;80603;-72
2022/06/01 12:56:54;;;;;;;2.92;1.30;;;23.80;43.20;;;;;;6225829;28;80399;-70
2022/06/01 12:59:54;;;;;;;2.38;1.50;;;23.70;44.10;;;;;;6225535;28;80419;-70
2022/06/01 13:02:55;;;;;;;2.40;1.52;;;23.70;42.70;;;;;;6215947;28;82125;-70
2022/06/01 13:05:56;;;;;;;2.45;1.60;;;23.60;43.40;;;;;;6223133;28;80549;-71
2022/06/01 13:08:57;;;;;;;3.42;1.40;;;23.60;42.50;;;;;;6221906;28;80298;-72
2022/06/01 13:11:57;;;;;;;1.92;1.33;;;23.70;42.40;;;;;;6230165;28;80437;-72
2022/06/01 13:14:58;;;;;;;1.67;1.35;;;23.70;42.80;;;;;;6229921;28;80786;-72
2022/06/01 13:17:58;;;;;;;6.03;2.95;;;23.70;42.00;;;;;;6231472;28;81669;-73
2022/06/01 13:20:59;;;;;;;3.05;1.95;;;23.70;41.80;;;;;;6221776;28;80445;-73
2022/06/01 13:23:59;;;;;;;1.73;1.60;;;23.70;42.50;;;;;;6226299;28;80351;-72
2022/06/01 13:27:01;;;;;;;2.15;1.60;;;23.70;43.20;;;;;;6231037;28;80806;-73
2022/06/01 13:30:01;;;;;;;8.25;1.60;;;23.70;43.10;;;;;;6229957;28;80441;-73
2022/06/01 13:33:02;;;;;;;2.90;1.40;;;23.70;41.80;;;;;;6228775;28;80576;-73
2022/06/01 13:36:02;;;;;;;2.53;1.52;;;23.70;41.30;;;;;;6228831;28;80357;-76
2022/06/01 13:39:03;;;;;;;2.65;1.38;;;23.80;42.50;;;;;;6220795;28;80284;-76
2022/06/01 13:42:03;;;;;;;4.22;1.77;;;23.80;42.90;;;;;;6210330;28;83286;-76
2022/06/01 13:45:04;;;;;;;1.40;1.30;;;23.80;41.50;;;;;;6235253;28;80433;-75
2022/06/01 13:48:04;;;;;;;1.40;1.13;;;23.80;41.80;;;;;;6217647;28;80761;-72
2022/06/01 13:51:05;;;;;;;1.30;1.20;;;23.90;42.10;;;;;;6229747;28;80613;-75
2022/06/01 13:54:06;;;;;;;3.95;1.50;;;23.80;42.00;;;;;;6225414;28;80406;-71
2022/06/01 13:57:06;;;;;;;7.15;1.83;;;23.90;42.70;;;;;;6229548;28;85919;-72
2022/06/01 14:00:07;;;;;;;4.55;1.60;;;23.90;43.80;;;;;;6223903;28;81190;-76
2022/06/01 14:03:07;;;;;;;3.33;1.55;;;23.90;44.70;;;;;;6218518;28;80658;-73
2022/06/01 14:06:08;;;;;;;3.47;1.70;;;23.80;44.70;;;;;;6228323;28;80286;-75
2022/06/01 14:09:08;;;;;;;2.00;1.50;;;23.80;44.10;;;;;;6205493;28;81681;-76
2022/06/01 14:12:09;;;;;;;2.03;1.65;;;23.70;44.20;;;;;;6211711;28;80505;-75
2022/06/01 14:15:11;;;;;;;3.53;1.40;;;23.70;43.30;;;;;;6216905;28;80226;-78
2022/06/01 14:18:11;;;;;;;2.35;1.50;;;23.70;42.20;;;;;;6217968;28;81611;-75
2022/06/01 14:21:12;;;;;;;1.98;1.77;;;23.70;41.00;;;;;;6221650;28;80343;-71
2022/06/01 14:24:12;;;;;;;3.10;1.70;;;23.70;40.40;;;;;;6215086;28;80406;-74
2022/06/01 14:30:32;;;;;;;3.15;1.90;;;23.70;41.10;;;;;;6220384;28;80755;-75
2022/06/01 14:33:33;;;;;;;2.10;1.50;;;23.70;40.80;;;;;;6215083;28;81766;-70
2022/06/01 14:36:33;;;;;;;5.68;1.35;;;23.70;40.40;;;;;;6221471;28;80956;-73
2022/06/01 14:39:34;;;;;;;2.08;1.83;;;23.70;40.10;;;;;;6215096;28;80500;-75
2022/06/01 14:42:34;;;;;;;8.95;1.67;;;23.70;41.00;;;;;;6226319;28;80737;-75
2022/06/01 14:45:35;;;;;;;2.38;1.92;;;23.70;42.30;;;;;;6220654;28;80385;-74
2022/06/01 14:48:35;;;;;;;2.10;1.60;;;23.70;41.80;;;;;;6228496;28;80594;-77
2022/06/01 14:51:36;;;;;;;3.25;1.40;;;23.60;41.60;;;;;;6230046;28;80445;-74
2022/06/01 14:54:36;;;;;;;3.30;1.35;;;23.60;41.10;;;;;;6218215;28;80390;-68
2022/06/01 14:57:37;;;;;;;6.07;1.77;;;23.60;42.70;;;;;;6226567;28;80346;-69
2022/06/01 15:00:37;;;;;;;4.78;1.80;;;23.60;42.10;;;;;;6224849;28;80762;-69
2022/06/01 15:03:38;;;;;;;2.97;2.03;;;23.60;41.10;;;;;;6218119;28;79993;-69
2022/06/01 15:06:38;;;;;;;2.60;1.77;;;23.60;40.10;;;;;;6213672;28;80470;-68
2022/06/01 15:09:39;;;;;;;4.03;2.10;;;23.70;40.20;;;;;;6225388;28;80210;-66
2022/06/01 15:12:39;;;;;;;4.22;2.00;;;23.70;40.50;;;;;;6233114;28;80637;-66
2022/06/01 15:15:41;;;;;;;2.97;1.75;;;23.70;40.60;;;;;;6224676;28;80990;-67
2022/06/01 15:18:42;;;;;;;5.72;1.88;;;23.60;40.20;;;;;;6216021;28;81288;-68
2022/06/01 15:21:44;;;;;;;2.90;1.60;;;23.60;40.20;;;;;;6229138;28;80431;-74
2022/06/01 15:24:44;;;;;;;2.38;1.40;;;23.60;40.80;;;;;;6217595;28;80889;-73
2022/06/01 15:27:45;;;;;;;2.72;1.58;;;23.60;40.30;;;;;;6220644;28;80464;-73
2022/06/01 15:40:43;;;;;;;1.67;1.38;;;23.60;40.60;;;;;;6214562;28;84952;-71
2022/06/01 15:43:44;;;;;;;4.18;1.50;;;23.60;41.80;;;;;;6227608;28;80207;-70
2022/06/01 15:46:44;;;;;;;3.40;1.60;;;23.50;42.40;;;;;;6223471;28;80568;-72
2022/06/01 15:49:45;;;;;;;5.10;2.08;;;23.60;42.90;;;;;;6220474;28;80920;-73
2022/06/01 15:52:45;;;;;;;2.95;1.70;;;23.50;42.80;;;;;;6228845;28;81417;-74
2022/06/01 15:55:46;;;;;;;4.15;1.42;;;23.50;42.30;;;;;;6222224;28;81065;-72
2022/06/01 15:58:46;;;;;;;1.42;1.33;;;23.50;42.60;;;;;;6223061;28;81893;-74
2022/06/01 16:01:47;;;;;;;3.50;2.10;;;23.60;42.70;;;;;;6221145;28;80450;-67
2022/06/01 16:04:47;;;;;;;3.70;2.05;;;23.60;42.30;;;;;;6230036;28;80610;-70
2022/06/01 16:07:48;;;;;;;1.80;1.40;;;23.60;42.50;;;;;;6228219;28;80408;-71
2022/06/01 16:10:48;;;;;;;3.45;1.48;;;23.50;41.30;;;;;;6225270;28;80833;-70
2022/06/01 16:13:49;;;;;;;4.30;1.90;;;23.50;41.00;;;;;;6209455;28;80609;-73
2022/06/01 16:16:49;;;;;;;7.30;1.90;;;23.50;42.80;;;;;;6229467;28;80690;-71
2022/06/01 16:19:50;;;;;;;2.28;1.83;;;23.60;43.50;;;;;;6226812;28;81279;-72
2022/06/01 16:22:50;;;;;;;4.07;1.77;;;23.60;42.90;;;;;;6219072;28;80462;-69
2022/06/01 16:25:51;;;;;;;6.10;1.63;;;23.60;43.60;;;;;;6221576;28;81023;-70
2022/06/01 16:28:51;;;;;;;4.10;1.50;;;23.60;43.60;;;;;;6221388;28;80385;-70
2022/06/01 16:31:52;;;;;;;3.53;1.50;;;23.60;43.00;;;;;;6211722;28;80032;-73